Time;durP1;ratioP1;P1;durP2;ratioP2;P2;SDS_P1;SDS_P2;PMS_P1;PMS_P2;Temp;Humidity;BMP_temperature;BMP_pressure;BME280_temperature;BME280_humidity;BME280_pressure;Samples;Min_cycle;Max_cycle;Signal;HPM_P1;HPM_P2
2022/10/27 00:02:17;;;;;;;20.42;12.90;;;;;;;;;;4970472;28;20032;-67
2022/10/27 00:04:43;;;;;;;22.95;12.50;;;;;;;;;;4962689;28;20038;-77
2022/10/27 00:07:08;;;;;;;21.25;11.73;;;;;;;;;;4964139;28;20033;-67
2022/10/27 00:09:33;;;;;;;20.55;12.38;;;;;;;;;;4972199;28;20550;-67
2022/10/27 00:11:59;;;;;;;23.02;12.30;;;;;;;;;;4973831;28;20102;-74
2022/10/27 00:14:25;;;;;;;18.52;12.07;;;;;;;;;;4973858;28;20035;-67
2022/10/27 00:16:55;;;;;;;23.55;12.40;;;;;;;;;;4963952;28;20078;-69
2022/10/27 00:19:21;;;;;;;21.20;11.88;;;;;;;;;;4954335;28;20031;-68
2022/10/27 00:21:47;;;;;;;18.95;11.65;;;;;;;;;;4954416;28;20053;-67
2022/10/27 00:24:13;;;;;;;21.02;12.43;;;;;;;;;;4954396;28;20027;-67
2022/10/27 00:26:38;;;;;;;19.77;12.55;;;;;;;;;;4959141;28;20047;-76
2022/10/27 00:29:03;;;;;;;19.45;13.52;;;;;;;;;;4972622;28;20035;-76
2022/10/27 00:31:29;;;;;;;24.10;13.82;;;;;;;;;;4973526;28;20022;-67
2022/10/27 00:33:54;;;;;;;22.33;14.27;;;;;;;;;;4972700;28;20081;-67
2022/10/27 00:36:22;;;;;;;25.73;13.57;;;;;;;;;;4973455;28;20031;-67
2022/10/27 00:38:48;;;;;;;25.35;12.98;;;;;;;;;;4973376;28;20381;-67
2022/10/27 00:41:29;;;;;;;19.10;11.85;;;;;;;;;;4973527;28;20034;-71
2022/10/27 00:43:56;;;;;;;21.00;11.85;;;;;;;;;;4973505;28;20053;-68
2022/10/27 00:46:38;;;;;;;18.02;11.50;;;;;;;;;;4973091;28;20062;-67
2022/10/27 00:49:12;;;;;;;15.05;9.93;;;;;;;;;;4973353;28;20031;-68
2022/10/27 00:51:47;;;;;;;16.98;11.18;;;;;;;;;;4973282;28;20477;-67
2022/10/27 00:54:14;;;;;;;17.98;10.85;;;;;;;;;;4973332;28;20041;-67
2022/10/27 00:56:41;;;;;;;18.25;10.80;;;;;;;;;;4973218;28;20130;-67
2022/10/27 00:59:07;;;;;;;15.60;9.57;;;;;;;;;;4973309;28;20631;-75
2022/10/27 01:01:35;;;;;;;14.55;9.82;;;;;;;;;;4972917;28;20113;-67
2022/10/27 01:04:01;;;;;;;15.18;9.32;;;;;;;;;;4971901;28;20031;-67
2022/10/27 01:06:27;;;;;;;15.48;10.35;;;;;;;;;;4972941;28;20193;-67
2022/10/27 01:08:53;;;;;;;17.98;10.95;;;;;;;;;;4973119;28;20106;-67
2022/10/27 01:11:18;;;;;;;19.10;11.07;;;;;;;;;;4973151;28;20402;-67
2022/10/27 01:13:44;;;;;;;17.55;10.02;;;;;;;;;;4973181;28;20062;-76
2022/10/27 01:16:31;;;;;;;18.75;11.25;;;;;;;;;;4973090;28;20195;-67
2022/10/27 01:19:24;;;;;;;18.00;11.10;;;;;;;;;;4973210;28;20019;-73
2022/10/27 01:21:56;;;;;;;16.48;10.15;;;;;;;;;;4973099;28;20026;-68
2022/10/27 01:24:40;;;;;;;17.90;10.43;;;;;;;;;;4973064;28;20089;-67
2022/10/27 01:27:42;;;;;;;17.00;9.63;;;;;;;;;;4974276;28;20047;-76
2022/10/27 01:30:15;;;;;;;18.95;10.35;;;;;;;;;;4992216;28;20037;-67
2022/10/27 01:33:04;;;;;;;19.83;10.43;;;;;;;;;;4992305;28;20050;-67
2022/10/27 01:35:44;;;;;;;16.75;10.00;;;;;;;;;;4992385;28;20027;-67
2022/10/27 01:38:19;;;;;;;17.55;9.13;;;;;;;;;;4992433;28;20081;-66
2022/10/27 01:40:55;;;;;;;18.27;10.18;;;;;;;;;;4992258;28;20030;-67
2022/10/27 01:43:24;;;;;;;16.63;10.05;;;;;;;;;;4992296;28;20117;-68
2022/10/27 01:45:52;;;;;;;22.70;12.25;;;;;;;;;;4995117;28;20045;-74
2022/10/27 01:48:19;;;;;;;22.08;12.43;;;;;;;;;;4996102;28;20030;-76
2022/10/27 01:50:44;;;;;;;19.95;12.25;;;;;;;;;;4995925;28;20468;-67
2022/10/27 01:53:11;;;;;;;23.30;12.02;;;;;;;;;;4995896;28;20030;-69
2022/10/27 01:56:00;;;;;;;21.83;12.57;;;;;;;;;;4995798;28;20033;-67
2022/10/27 01:58:41;;;;;;;22.48;13.05;;;;;;;;;;4995843;28;20432;-67
2022/10/27 02:01:14;;;;;;;20.30;11.45;;;;;;;;;;4995703;28;20494;-70
2022/10/27 02:03:52;;;;;;;20.05;11.10;;;;;;;;;;4995843;28;20029;-67
2022/10/27 02:06:36;;;;;;;15.63;10.25;;;;;;;;;;4995532;28;20038;-67
2022/10/27 02:09:28;;;;;;;15.68;9.27;;;;;;;;;;4995609;28;20038;-67
2022/10/27 02:11:56;;;;;;;18.45;10.07;;;;;;;;;;4995939;28;20023;-68
2022/10/27 02:14:21;;;;;;;18.75;10.13;;;;;;;;;;4995335;28;20014;-67
2022/10/27 02:16:53;;;;;;;16.60;9.65;;;;;;;;;;4995518;28;20026;-67
2022/10/27 02:19:25;;;;;;;17.33;10.05;;;;;;;;;;4995481;28;20030;-76
2022/10/27 02:21:55;;;;;;;15.57;9.25;;;;;;;;;;4995525;28;20030;-68
2022/10/27 02:24:21;;;;;;;20.58;10.25;;;;;;;;;;4995896;28;20019;-68
2022/10/27 02:27:13;;;;;;;20.02;10.82;;;;;;;;;;4995731;28;20086;-67
2022/10/27 02:29:47;;;;;;;16.45;9.73;;;;;;;;;;4995708;28;20026;-67
2022/10/27 02:32:17;;;;;;;19.75;11.35;;;;;;;;;;4995756;28;20092;-67
2022/10/27 02:34:43;;;;;;;15.25;10.80;;;;;;;;;;4995689;28;20038;-67
2022/10/27 02:37:09;;;;;;;15.82;9.68;;;;;;;;;;4995801;28;20031;-72
2022/10/27 02:39:35;;;;;;;17.45;10.00;;;;;;;;;;4995631;28;20032;-67
2022/10/27 02:42:03;;;;;;;13.32;8.25;;;;;;;;;;4995530;28;20034;-67
2022/10/27 02:44:28;;;;;;;15.70;9.75;;;;;;;;;;4994941;28;20058;-67
2022/10/27 02:46:54;;;;;;;18.27;9.38;;;;;;;;;;4994755;28;20105;-67
2022/10/27 02:49:19;;;;;;;15.93;9.63;;;;;;;;;;4994804;28;20027;-67
2022/10/27 02:51:45;;;;;;;14.20;9.50;;;;;;;;;;4995002;28;20019;-75
2022/10/27 02:54:10;;;;;;;13.48;9.10;;;;;;;;;;4995216;28;20157;-67
2022/10/27 02:56:35;;;;;;;14.80;9.20;;;;;;;;;;4994520;28;20037;-67
2022/10/27 02:59:01;;;;;;;24.67;14.32;;;;;;;;;;4995114;28;20107;-71
2022/10/27 03:01:26;;;;;;;16.83;9.93;;;;;;;;;;4995237;28;20026;-67
2022/10/27 03:03:52;;;;;;;28.25;16.02;;;;;;;;;;4995326;28;20015;-67
2022/10/27 03:06:17;;;;;;;22.27;11.40;;;;;;;;;;4995069;28;20054;-67
2022/10/27 03:08:43;;;;;;;16.15;10.48;;;;;;;;;;4993961;28;20022;-67
2022/10/27 03:11:08;;;;;;;16.25;9.68;;;;;;;;;;4994875;28;20022;-67
2022/10/27 03:13:34;;;;;;;16.63;9.52;;;;;;;;;;4994553;28;20391;-67
2022/10/27 03:15:59;;;;;;;15.40;9.70;;;;;;;;;;4994329;28;20014;-67
2022/10/27 03:18:24;;;;;;;17.38;10.48;;;;;;;;;;4994214;28;20023;-72
2022/10/27 03:20:50;;;;;;;15.98;10.70;;;;;;;;;;4994329;28;20040;-67
2022/10/27 03:23:15;;;;;;;17.48;10.85;;;;;;;;;;4994768;28;20105;-67
2022/10/27 03:25:43;;;;;;;17.92;9.35;;;;;;;;;;4994695;28;20041;-67
2022/10/27 03:28:11;;;;;;;14.60;9.85;;;;;;;;;;4994305;28;20046;-75
2022/10/27 03:30:37;;;;;;;15.70;9.32;;;;;;;;;;4994722;28;20030;-68
2022/10/27 03:33:03;;;;;;;20.77;12.23;;;;;;;;;;4994767;28;20049;-67
2022/10/27 03:35:29;;;;;;;20.60;10.75;;;;;;;;;;4994648;28;20408;-67
2022/10/27 03:37:59;;;;;;;15.65;9.48;;;;;;;;;;4994651;28;20560;-67
2022/10/27 03:40:26;;;;;;;16.60;10.02;;;;;;;;;;4994321;28;20055;-67
2022/10/27 03:42:56;;;;;;;14.77;8.95;;;;;;;;;;4994364;28;20080;-70
2022/10/27 03:45:22;;;;;;;15.98;9.45;;;;;;;;;;4993754;28;20030;-67
2022/10/27 03:47:47;;;;;;;15.55;10.23;;;;;;;;;;4993741;28;20038;-76
2022/10/27 03:50:13;;;;;;;14.10;9.13;;;;;;;;;;4993817;28;20027;-73
2022/10/27 03:52:38;;;;;;;19.15;9.05;;;;;;;;;;4993611;28;20033;-67
2022/10/27 03:55:04;;;;;;;18.73;10.13;;;;;;;;;;4994020;28;20076;-72
2022/10/27 03:57:30;;;;;;;21.52;9.50;;;;;;;;;;4994174;28;20030;-67
2022/10/27 03:59:55;;;;;;;21.88;10.98;;;;;;;;;;4994154;28;20053;-67
2022/10/27 04:02:21;;;;;;;25.15;11.30;;;;;;;;;;4994211;28;20038;-67
2022/10/27 04:04:46;;;;;;;19.10;11.57;;;;;;;;;;4994062;28;20467;-67
2022/10/27 04:07:11;;;;;;;19.85;12.23;;;;;;;;;;4993871;28;20361;-68
2022/10/27 04:09:37;;;;;;;16.20;10.40;;;;;;;;;;4993840;28;20026;-68
2022/10/27 04:12:02;;;;;;;14.82;8.93;;;;;;;;;;4993945;28;20026;-67
2022/10/27 04:14:28;;;;;;;13.90;10.13;;;;;;;;;;4981234;28;20030;-67
2022/10/27 04:16:53;;;;;;;17.88;10.30;;;;;;;;;;4973785;28;20030;-66
2022/10/27 04:19:20;;;;;;;19.15;10.65;;;;;;;;;;4973538;28;20417;-67
2022/10/27 04:21:45;;;;;;;22.88;10.15;;;;;;;;;;4973662;28;20034;-67
2022/10/27 04:24:11;;;;;;;16.08;10.95;;;;;;;;;;4974077;28;20027;-67
2022/10/27 04:26:37;;;;;;;21.30;10.65;;;;;;;;;;4974102;28;20050;-68
2022/10/27 04:29:03;;;;;;;16.75;10.18;;;;;;;;;;4991346;28;20038;-71
2022/10/27 04:31:29;;;;;;;19.42;9.55;;;;;;;;;;4993612;28;20132;-67
2022/10/27 04:33:54;;;;;;;18.85;9.73;;;;;;;;;;4993787;28;20058;-67
2022/10/27 04:36:20;;;;;;;22.25;10.88;;;;;;;;;;4993613;28;20097;-67
2022/10/27 04:38:49;;;;;;;14.15;9.85;;;;;;;;;;4993282;28;20072;-67
2022/10/27 04:41:14;;;;;;;14.35;9.75;;;;;;;;;;4993161;28;20030;-67
2022/10/27 04:43:40;;;;;;;16.30;9.45;;;;;;;;;;4992866;28;20033;-67
2022/10/27 04:46:05;;;;;;;17.00;10.20;;;;;;;;;;4992759;28;20030;-67
2022/10/27 04:48:31;;;;;;;14.52;10.02;;;;;;;;;;4992628;28;20054;-67
2022/10/27 04:50:56;;;;;;;12.82;9.45;;;;;;;;;;4992669;28;20026;-67
2022/10/27 04:53:22;;;;;;;17.10;9.93;;;;;;;;;;4993008;28;20034;-67
2022/10/27 04:55:49;;;;;;;17.55;9.75;;;;;;;;;;4993259;28;20057;-67
2022/10/27 04:58:15;;;;;;;15.40;9.52;;;;;;;;;;4992841;28;20096;-73
2022/10/27 05:00:41;;;;;;;14.88;9.32;;;;;;;;;;4992676;28;20113;-67
2022/10/27 05:03:07;;;;;;;13.93;9.02;;;;;;;;;;4992491;28;20030;-67
2022/10/27 05:05:33;;;;;;;21.98;9.48;;;;;;;;;;4992482;28;20041;-75
2022/10/27 05:08:00;;;;;;;16.08;8.80;;;;;;;;;;4992496;28;20033;-67
2022/10/27 05:10:26;;;;;;;13.80;9.25;;;;;;;;;;4993077;28;20027;-73
2022/10/27 05:12:51;;;;;;;14.00;9.90;;;;;;;;;;4993268;28;20446;-73
2022/10/27 05:15:17;;;;;;;12.52;9.07;;;;;;;;;;4992977;28;20022;-68
2022/10/27 05:17:43;;;;;;;13.70;9.43;;;;;;;;;;4993052;28;20118;-67
2022/10/27 05:20:10;;;;;;;18.25;9.43;;;;;;;;;;4995261;28;20047;-67
2022/10/27 05:22:37;;;;;;;13.73;9.13;;;;;;;;;;4996812;28;20026;-67
2022/10/27 05:25:02;;;;;;;15.20;8.85;;;;;;;;;;4996924;28;20420;-67
2022/10/27 05:27:28;;;;;;;12.45;8.50;;;;;;;;;;4996382;28;20133;-76
2022/10/27 05:29:53;;;;;;;12.23;8.50;;;;;;;;;;4996982;28;20113;-71
2022/10/27 05:32:19;;;;;;;15.45;9.00;;;;;;;;;;4996215;28;20419;-67
2022/10/27 05:34:44;;;;;;;16.35;9.18;;;;;;;;;;4996133;28;20530;-70
2022/10/27 05:37:10;;;;;;;14.65;8.93;;;;;;;;;;4995949;28;20361;-68
2022/10/27 05:39:35;;;;;;;13.55;8.85;;;;;;;;;;4995968;28;20064;-68
2022/10/27 05:42:01;;;;;;;15.00;9.52;;;;;;;;;;4996426;28;20130;-68
2022/10/27 05:44:26;;;;;;;13.13;8.90;;;;;;;;;;4996506;28;20041;-68
2022/10/27 05:46:51;;;;;;;15.70;9.85;;;;;;;;;;4996419;28;20452;-67
2022/10/27 05:49:17;;;;;;;16.40;9.75;;;;;;;;;;4996360;28;20026;-67
2022/10/27 05:51:43;;;;;;;19.50;9.13;;;;;;;;;;4996449;28;20022;-67
2022/10/27 05:54:08;;;;;;;13.52;8.63;;;;;;;;;;4996332;28;20026;-71
2022/10/27 05:56:34;;;;;;;12.65;8.65;;;;;;;;;;4996437;28;20515;-67
2022/10/27 05:58:59;;;;;;;13.48;9.13;;;;;;;;;;4996110;28;20472;-67
2022/10/27 06:01:25;;;;;;;15.90;9.48;;;;;;;;;;4995527;28;20030;-67
2022/10/27 06:03:50;;;;;;;12.75;9.05;;;;;;;;;;4995659;28;20105;-68
2022/10/27 06:06:16;;;;;;;15.40;9.45;;;;;;;;;;4995129;28;20030;-68
2022/10/27 06:08:41;;;;;;;13.55;8.98;;;;;;;;;;4995599;28;20101;-76
2022/10/27 06:11:07;;;;;;;17.42;9.07;;;;;;;;;;4995903;28;20361;-73
2022/10/27 06:13:33;;;;;;;11.48;8.90;;;;;;;;;;4995960;28;20030;-67
2022/10/27 06:15:58;;;;;;;15.77;8.73;;;;;;;;;;4995989;28;20479;-69
2022/10/27 06:18:24;;;;;;;16.83;10.68;;;;;;;;;;4995735;28;20105;-76
2022/10/27 06:20:49;;;;;;;15.80;9.50;;;;;;;;;;4995708;28;20026;-68
2022/10/27 06:23:15;;;;;;;15.77;9.50;;;;;;;;;;4995881;28;20022;-68
2022/10/27 06:25:40;;;;;;;13.85;9.10;;;;;;;;;;4995800;28;20377;-68
2022/10/27 06:28:06;;;;;;;15.07;9.95;;;;;;;;;;4995375;28;20117;-68
2022/10/27 06:30:31;;;;;;;19.52;9.65;;;;;;;;;;4994975;28;20569;-68
2022/10/27 06:32:57;;;;;;;13.80;9.55;;;;;;;;;;4994802;28;20053;-67
2022/10/27 06:35:22;;;;;;;16.00;9.10;;;;;;;;;;4994793;28;20129;-69
2022/10/27 06:37:47;;;;;;;13.65;9.57;;;;;;;;;;4995150;28;20026;-67
2022/10/27 06:40:16;;;;;;;15.52;9.70;;;;;;;;;;4994921;28;20030;-67
2022/10/27 06:42:42;;;;;;;14.18;9.02;;;;;;;;;;4995196;28;20065;-76
2022/10/27 06:45:08;;;;;;;15.75;9.35;;;;;;;;;;4995502;28;20030;-67
2022/10/27 06:47:34;;;;;;;14.07;8.93;;;;;;;;;;4995232;28;20042;-67
2022/10/27 06:49:59;;;;;;;12.50;8.90;;;;;;;;;;4995257;28;20368;-75
2022/10/27 06:52:26;;;;;;;14.18;9.27;;;;;;;;;;4995384;28;20031;-75
2022/10/27 06:54:51;;;;;;;12.65;8.55;;;;;;;;;;4995286;28;20061;-68
2022/10/27 06:57:17;;;;;;;13.60;8.85;;;;;;;;;;4995208;28;20423;-71
2022/10/27 06:59:42;;;;;;;11.60;8.18;;;;;;;;;;4994581;28;20034;-76
2022/10/27 07:02:13;;;;;;;12.90;8.45;;;;;;;;;;4977156;28;20109;-72
2022/10/27 07:04:39;;;;;;;14.75;8.48;;;;;;;;;;4974937;28;20599;-70
2022/10/27 07:07:04;;;;;;;10.68;8.27;;;;;;;;;;4957316;28;20122;-67
2022/10/27 07:09:30;;;;;;;12.40;7.95;;;;;;;;;;4956298;28;20055;-71
2022/10/27 07:11:55;;;;;;;13.25;8.15;;;;;;;;;;4963582;28;20027;-67
2022/10/27 07:14:21;;;;;;;10.60;8.05;;;;;;;;;;4975316;28;20035;-76
2022/10/27 07:16:46;;;;;;;9.63;7.68;;;;;;;;;;4967828;28;20417;-74
2022/10/27 07:19:12;;;;;;;11.25;7.82;;;;;;;;;;4968640;28;20037;-73
2022/10/27 07:21:37;;;;;;;10.75;7.13;;;;;;;;;;4972849;28;20476;-67
2022/10/27 07:24:03;;;;;;;11.30;6.95;;;;;;;;;;4975344;28;20057;-73
2022/10/27 07:26:28;;;;;;;9.60;5.78;;;;;;;;;;4974958;28;20539;-79
2022/10/27 07:28:54;;;;;;;11.40;6.30;;;;;;;;;;4975055;28;20079;-75
2022/10/27 07:31:19;;;;;;;8.13;6.13;;;;;;;;;;4974943;28;20066;-72
2022/10/27 07:33:45;;;;;;;9.18;5.97;;;;;;;;;;4974433;28;20110;-75
2022/10/27 07:36:10;;;;;;;9.13;6.03;;;;;;;;;;4963264;28;20262;-73
2022/10/27 07:38:37;;;;;;;14.93;6.50;;;;;;;;;;4964885;28;20019;-70
2022/10/27 07:41:02;;;;;;;9.95;6.03;;;;;;;;;;4963773;28;20042;-72
2022/10/27 07:43:28;;;;;;;14.40;6.05;;;;;;;;;;4963061;28;20023;-76
2022/10/27 07:45:53;;;;;;;15.85;5.93;;;;;;;;;;4964780;28;20015;-66
2022/10/27 07:48:19;;;;;;;13.60;6.35;;;;;;;;;;4963793;28;20066;-76
2022/10/27 07:50:44;;;;;;;13.15;6.72;;;;;;;;;;4964406;28;20023;-74
2022/10/27 07:53:10;;;;;;;14.25;6.80;;;;;;;;;;4965276;28;20106;-67
2022/10/27 07:55:37;;;;;;;10.60;6.28;;;;;;;;;;4963535;28;20110;-76
2022/10/27 07:58:13;;;;;;;10.60;6.20;;;;;;;;;;4964849;28;20029;-67
2022/10/27 08:00:47;;;;;;;11.63;6.97;;;;;;;;;;4963670;28;20381;-67
2022/10/27 08:03:25;;;;;;;12.00;6.30;;;;;;;;;;4963243;28;20023;-69
2022/10/27 08:05:51;;;;;;;13.23;6.70;;;;;;;;;;4963502;28;20389;-73
2022/10/27 08:08:17;;;;;;;11.73;6.45;;;;;;;;;;4965259;28;20072;-66
2022/10/27 08:10:44;;;;;;;16.00;6.35;;;;;;;;;;4964055;28;20068;-74
2022/10/27 08:13:09;;;;;;;12.80;6.45;;;;;;;;;;4963656;28;20106;-70
2022/10/27 08:15:38;;;;;;;16.38;6.78;;;;;;;;;;4965321;28;20420;-76
2022/10/27 08:18:05;;;;;;;13.00;6.80;;;;;;;;;;4964165;28;20019;-66
2022/10/27 08:20:37;;;;;;;9.98;6.40;;;;;;;;;;4963505;28;20027;-74
2022/10/27 08:23:05;;;;;;;12.68;7.07;;;;;;;;;;4964120;28;20027;-66
2022/10/27 08:25:32;;;;;;;15.85;6.65;;;;;;;;;;4971299;28;20514;-68
2022/10/27 08:27:58;;;;;;;15.15;6.30;;;;;;;;;;4973822;28;20050;-73
2022/10/27 08:30:26;;;;;;;28.52;7.07;;;;;;;;;;4973898;28;20090;-76
2022/10/27 08:32:56;;;;;;;12.80;6.63;;;;;;;;;;4974041;28;20144;-68
2022/10/27 08:35:21;;;;;;;19.17;6.53;;;;;;;;;;4973958;28;20056;-74
2022/10/27 08:37:46;;;;;;;16.35;6.68;;;;;;;;;;4974041;28;20039;-69
2022/10/27 08:40:12;;;;;;;15.05;6.80;;;;;;;;;;4972720;28;20034;-72
2022/10/27 08:42:51;;;;;;;13.70;6.43;;;;;;;;;;4973813;28;20031;-74
2022/10/27 08:45:27;;;;;;;14.82;6.95;;;;;;;;;;4973790;28;20081;-67
2022/10/27 08:47:55;;;;;;;14.40;7.22;;;;;;;;;;4973792;28;20084;-69
2022/10/27 08:50:23;;;;;;;13.85;7.38;;;;;;;;;;4973908;28;20372;-72
2022/10/27 08:52:57;;;;;;;11.45;7.03;;;;;;;;;;4973778;28;20087;-68
2022/10/27 08:55:28;;;;;;;10.88;7.45;;;;;;;;;;4973148;28;20022;-67
2022/10/27 08:58:16;;;;;;;10.02;7.57;;;;;;;;;;4971844;28;20027;-68
2022/10/27 09:00:55;;;;;;;9.27;6.80;;;;;;;;;;4973370;28;20034;-66
2022/10/27 09:03:36;;;;;;;29.25;8.30;;;;;;;;;;4973192;28;20252;-67
2022/10/27 09:06:35;;;;;;;13.73;8.30;;;;;;;;;;4973564;28;20034;-72
2022/10/27 09:09:06;;;;;;;14.93;8.05;;;;;;;;;;4952242;29;20063;-67
2022/10/27 09:11:34;;;;;;;32.88;10.32;;;;;;;;;;4952099;29;20074;-66
2022/10/27 09:14:26;;;;;;;14.35;8.63;;;;;;;;;;4952042;29;20495;-67
2022/10/27 09:17:12;;;;;;;21.27;8.07;;;;;;;;;;4952246;29;20043;-67
2022/10/27 09:19:51;;;;;;;17.08;8.35;;;;;;;;;;4952242;29;20122;-70
2022/10/27 09:22:19;;;;;;;21.27;8.50;;;;;;;;;;4952396;29;20047;-66
2022/10/27 09:24:53;;;;;;;23.02;9.38;;;;;;;;;;4952204;29;20031;-67
2022/10/27 09:27:20;;;;;;;15.60;8.43;;;;;;;;;;4951743;29;20461;-68
2022/10/27 09:29:49;;;;;;;15.95;8.32;;;;;;;;;;4951809;29;20334;-67
2022/10/27 09:32:21;;;;;;;18.30;7.72;;;;;;;;;;4952295;29;20043;-66
2022/10/27 09:34:53;;;;;;;15.48;8.00;;;;;;;;;;4952398;29;20027;-67
2022/10/27 09:37:20;;;;;;;11.77;7.22;;;;;;;;;;4952277;29;20027;-66
2022/10/27 09:39:48;;;;;;;21.20;7.78;;;;;;;;;;4952268;29;20047;-67
2022/10/27 09:42:14;;;;;;;11.40;7.28;;;;;;;;;;4952255;29;20484;-67
2022/10/27 09:44:44;;;;;;;16.52;7.50;;;;;;;;;;4949705;28;20078;-67
2022/10/27 09:47:10;;;;;;;14.63;7.03;;;;;;;;;;4973346;28;20089;-72
2022/10/27 09:49:41;;;;;;;13.20;7.38;;;;;;;;;;4973452;28;20113;-71
2022/10/27 09:52:11;;;;;;;29.15;7.40;;;;;;;;;;4972690;28;20023;-76
2022/10/27 09:54:41;;;;;;;17.60;6.30;;;;;;;;;;4973311;28;20034;-73
2022/10/27 09:57:09;;;;;;;13.82;6.38;;;;;;;;;;4973296;28;20019;-75
2022/10/27 09:59:36;;;;;;;17.73;6.53;;;;;;;;;;4971815;28;20035;-66
2022/10/27 10:02:04;;;;;;;15.10;6.13;;;;;;;;;;4973021;28;20106;-74
2022/10/27 10:04:41;;;;;;;29.55;6.80;;;;;;;;;;4973227;28;20424;-67
2022/10/27 10:07:07;;;;;;;13.48;6.63;;;;;;;;;;4976647;28;20532;-71
2022/10/27 10:09:35;;;;;;;15.75;6.22;;;;;;;;;;4976903;28;20468;-72
2022/10/27 10:12:21;;;;;;;20.08;7.03;;;;;;;;;;4976455;28;20109;-76
2022/10/27 10:14:46;;;;;;;10.18;6.07;;;;;;;;;;4976844;28;20041;-76
2022/10/27 10:17:30;;;;;;;15.40;6.53;;;;;;;;;;4975942;28;20034;-67
2022/10/27 10:19:56;;;;;;;13.70;5.82;;;;;;;;;;4975005;28;20023;-73
2022/10/27 10:22:33;;;;;;;13.88;6.00;;;;;;;;;;4976626;28;20380;-75
2022/10/27 10:25:15;;;;;;;15.85;5.75;;;;;;;;;;4976581;28;20134;-77
2022/10/27 10:27:47;;;;;;;13.75;6.82;;;;;;;;;;4972530;28;20113;-76
2022/10/27 10:30:18;;;;;;;10.02;5.40;;;;;;;;;;4976475;28;20034;-77
2022/10/27 10:32:50;;;;;;;11.63;5.90;;;;;;;;;;4975728;28;20058;-75
2022/10/27 10:35:41;;;;;;;17.35;6.65;;;;;;;;;;4976325;28;20041;-78
2022/10/27 10:38:24;;;;;;;10.52;5.93;;;;;;;;;;4976337;28;20041;-77
2022/10/27 10:41:09;;;;;;;14.40;6.63;;;;;;;;;;4976044;28;20109;-75
2022/10/27 10:43:35;;;;;;;11.15;6.25;;;;;;;;;;4976300;28;20027;-77
2022/10/27 10:46:01;;;;;;;12.05;5.60;;;;;;;;;;4976078;28;20038;-78
2022/10/27 10:48:46;;;;;;;26.98;7.63;;;;;;;;;;4975954;28;20161;-68
2022/10/27 10:51:21;;;;;;;20.90;7.72;;;;;;;;;;4967380;28;20039;-69
2022/10/27 10:53:56;;;;;;;11.55;5.47;;;;;;;;;;4968148;28;20030;-76
2022/10/27 10:56:29;;;;;;;10.32;5.30;;;;;;;;;;4972802;28;20042;-66
2022/10/27 10:59:03;;;;;;;10.38;5.35;;;;;;;;;;4968910;28;20388;-76
2022/10/27 11:01:57;;;;;;;16.42;5.88;;;;;;;;;;4956526;29;20461;-72
2022/10/27 11:04:26;;;;;;;17.05;5.65;;;;;;;;;;4956665;29;20396;-68
2022/10/27 11:07:05;;;;;;;13.43;5.43;;;;;;;;;;4956388;29;20092;-75
2022/10/27 11:09:47;;;;;;;20.10;7.30;;;;;;;;;;4956563;28;20063;-76
2022/10/27 11:12:41;;;;;;;14.02;5.35;;;;;;;;;;4956501;29;20023;-69
2022/10/27 11:15:39;;;;;;;10.75;4.90;;;;;;;;;;4954031;28;20134;-76
2022/10/27 11:18:07;;;;;;;12.05;5.43;;;;;;;;;;4934411;29;20243;-77
2022/10/27 11:20:35;;;;;;;12.13;4.72;;;;;;;;;;4935030;29;20086;-67
2022/10/27 11:23:09;;;;;;;8.82;4.80;;;;;;;;;;4934931;29;20031;-66
2022/10/27 11:25:36;;;;;;;11.50;4.97;;;;;;;;;;4934641;29;20094;-67
2022/10/27 11:28:14;;;;;;;14.27;5.30;;;;;;;;;;4943035;29;20051;-74
2022/10/27 11:30:47;;;;;;;17.10;5.72;;;;;;;;;;4953673;29;20520;-68
2022/10/27 11:33:42;;;;;;;17.90;5.38;;;;;;;;;;4953954;29;20027;-77
2022/10/27 11:36:19;;;;;;;18.52;5.13;;;;;;;;;;4953879;29;20058;-70
2022/10/27 11:39:11;;;;;;;13.60;5.20;;;;;;;;;;4953328;29;20035;-70
2022/10/27 11:41:55;;;;;;;11.43;4.28;;;;;;;;;;4937651;29;20099;-77
2022/10/27 11:44:57;;;;;;;10.15;4.45;;;;;;;;;;4953683;29;20086;-76
2022/10/27 11:47:56;;;;;;;10.18;4.60;;;;;;;;;;4953424;29;20047;-67
2022/10/27 11:50:30;;;;;;;12.50;4.90;;;;;;;;;;4953256;29;20043;-76
2022/10/27 11:52:58;;;;;;;9.05;4.60;;;;;;;;;;4953977;29;20122;-75
2022/10/27 11:55:35;;;;;;;12.45;5.20;;;;;;;;;;4955202;28;20058;-77
2022/10/27 11:58:15;;;;;;;12.90;4.88;;;;;;;;;;4955343;28;20035;-66
2022/10/27 12:00:56;;;;;;;10.00;4.93;;;;;;;;;;4955032;28;20027;-70
2022/10/27 12:03:24;;;;;;;;;;;;;;;;;;4955849;28;20035;-67
2022/10/27 12:06:18;;;;;;;13.48;5.30;;;;;;;;;;4955482;28;19989;-66
2022/10/27 12:09:30;;;;;;;9.63;4.78;;;;;;;;;;4955082;28;20460;-71
2022/10/27 12:12:05;;;;;;;14.50;4.65;;;;;;;;;;4934190;29;20040;-66
2022/10/27 12:14:47;;;;;;;13.45;5.28;;;;;;;;;;4933996;29;20043;-71
2022/10/27 12:17:17;;;;;;;9.73;4.38;;;;;;;;;;4933933;29;20055;-75
2022/10/27 12:19:46;;;;;;;10.10;4.85;;;;;;;;;;4934008;29;20032;-69
2022/10/27 12:22:14;;;;;;;10.43;4.47;;;;;;;;;;4933322;29;20047;-73
2022/10/27 12:24:50;;;;;;;9.48;3.88;;;;;;;;;;4933631;29;20122;-70
2022/10/27 12:27:35;;;;;;;9.65;3.60;;;;;;;;;;4938640;28;20090;-75
2022/10/27 12:30:11;;;;;;;9.77;3.65;;;;;;;;;;4971404;28;20492;-66
2022/10/27 12:32:43;;;;;;;12.68;3.60;;;;;;;;;;4971999;28;20065;-66
2022/10/27 12:35:25;;;;;;;9.60;3.45;;;;;;;;;;4971986;28;20073;-66
2022/10/27 12:38:05;;;;;;;7.75;3.28;;;;;;;;;;4971769;28;20066;-67
2022/10/27 12:40:45;;;;;;;10.85;3.90;;;;;;;;;;4971981;28;20027;-70
2022/10/27 12:43:19;;;;;;;7.65;3.20;;;;;;;;;;4971941;28;20508;-66
2022/10/27 12:46:14;;;;;;;13.98;5.18;;;;;;;;;;4971884;28;20062;-76
2022/10/27 12:49:11;;;;;;;9.02;3.42;;;;;;;;;;4983411;28;20404;-74
2022/10/27 12:51:58;;;;;;;7.95;3.50;;;;;;;;;;4993216;28;20101;-75
2022/10/27 12:55:01;;;;;;;9.90;3.60;;;;;;;;;;4993358;28;20035;-75
2022/10/27 12:57:45;;;;;;;13.80;3.55;;;;;;;;;;4988369;28;20121;-77
2022/10/27 13:00:15;;;;;;;8.02;3.10;;;;;;;;;;4986114;28;20030;-66
2022/10/27 13:02:44;;;;;;;13.83;3.53;;;;;;;;;;4954732;28;20106;-67
2022/10/27 13:05:33;;;;;;;11.57;2.90;;;;;;;;;;4954782;28;20066;-67
2022/10/27 13:08:20;;;;;;;8.93;2.88;;;;;;;;;;4954407;28;20039;-68
2022/10/27 13:11:00;;;;;;;6.78;2.70;;;;;;;;;;4954590;28;20031;-66
2022/10/27 13:13:25;;;;;;;7.00;2.83;;;;;;;;;;4970469;28;20117;-66
2022/10/27 13:16:19;;;;;;;9.25;3.10;;;;;;;;;;4973967;28;20523;-67
2022/10/27 13:19:04;;;;;;;9.13;3.10;;;;;;;;;;4973861;28;20031;-76
2022/10/27 13:21:48;;;;;;;12.25;3.17;;;;;;;;;;4973575;28;20027;-76
2022/10/27 13:24:26;;;;;;;7.53;2.85;;;;;;;;;;4973711;28;20031;-67
2022/10/27 13:27:01;;;;;;;9.80;3.03;;;;;;;;;;4973350;28;20058;-66
2022/10/27 13:29:40;;;;;;;8.07;2.78;;;;;;;;;;4954307;28;20046;-66
2022/10/27 13:32:16;;;;;;;9.65;2.78;;;;;;;;;;4954455;28;20098;-67
2022/10/27 13:35:02;;;;;;;6.97;2.85;;;;;;;;;;4954059;28;20159;-70
2022/10/27 13:37:55;;;;;;;15.85;5.55;;;;;;;;;;4954062;29;20046;-68
2022/10/27 13:40:20;;;;;;;7.05;3.05;;;;;;;;;;4955061;28;20027;-67
2022/10/27 13:42:46;;;;;;;16.17;3.70;;;;;;;;;;4967565;28;20109;-72
2022/10/27 13:45:27;;;;;;;16.48;3.20;;;;;;;;;;4977303;28;20031;-67
2022/10/27 13:48:08;;;;;;;10.00;2.72;;;;;;;;;;4977432;28;20030;-67
2022/10/27 13:50:39;;;;;;;10.00;2.50;;;;;;;;;;4976838;28;20074;-68
2022/10/27 13:53:13;;;;;;;8.50;3.00;;;;;;;;;;4977422;28;20030;-72
2022/10/27 13:55:42;;;;;;;7.75;2.30;;;;;;;;;;4977365;28;20023;-69
2022/10/27 13:58:32;;;;;;;12.95;3.55;;;;;;;;;;4977331;28;20041;-68
2022/10/27 14:01:15;;;;;;;17.33;3.50;;;;;;;;;;4976932;28;20082;-66
2022/10/27 14:04:11;;;;;;;9.95;2.72;;;;;;;;;;4977053;28;20112;-69
2022/10/27 14:06:40;;;;;;;22.70;3.30;;;;;;;;;;4977049;28;20030;-75
2022/10/27 14:09:44;;;;;;;19.75;4.28;;;;;;;;;;4969574;28;20028;-67
2022/10/27 14:12:24;;;;;;;11.70;2.80;;;;;;;;;;4972233;28;20034;-78
2022/10/27 14:14:56;;;;;;;12.27;3.10;;;;;;;;;;4977088;28;20499;-68
2022/10/27 14:17:25;;;;;;;9.75;3.20;;;;;;;;;;4976962;28;20035;-68
2022/10/27 14:20:00;;;;;;;8.13;3.22;;;;;;;;;;4976547;28;20027;-67
2022/10/27 14:22:39;;;;;;;9.93;2.88;;;;;;;;;;4975377;28;20060;-68
2022/10/27 14:25:18;;;;;;;22.23;4.25;;;;;;;;;;4976912;28;20157;-68
2022/10/27 14:27:44;;;;;;;8.40;3.15;;;;;;;;;;4976229;28;20047;-67
2022/10/27 14:30:14;;;;;;;18.02;3.50;;;;;;;;;;4976528;28;20023;-69
2022/10/27 14:32:40;;;;;;;;;;;;;;;;;;4976792;28;20069;-67
2022/10/27 14:35:21;;;;;;;9.23;2.78;;;;;;;;;;4976596;28;19949;-67
2022/10/27 14:37:47;;;;;;;11.15;3.03;;;;;;;;;;4976690;28;20506;-78
2022/10/27 14:40:17;;;;;;;8.88;2.88;;;;;;;;;;4976522;28;20058;-70
2022/10/27 14:42:44;;;;;;;7.00;2.70;;;;;;;;;;4967775;28;20027;-68
2022/10/27 14:45:20;;;;;;;14.57;3.97;;;;;;;;;;4969625;28;20037;-72
2022/10/27 14:47:57;;;;;;;8.48;3.10;;;;;;;;;;4965200;28;20122;-67
2022/10/27 14:50:28;;;;;;;8.00;3.20;;;;;;;;;;4965119;28;20033;-67
2022/10/27 14:53:00;;;;;;;14.70;3.05;;;;;;;;;;4964441;28;20384;-74
2022/10/27 14:55:29;;;;;;;12.02;3.58;;;;;;;;;;4965614;28;20472;-68